Time;durP1;ratioP1;P1;durP2;ratioP2;P2;SDS_P1;SDS_P2;PMS_P1;PMS_P2;Temp;Humidity;BMP_temperature;BMP_pressure;BME280_temperature;BME280_humidity;BME280_pressure;Samples;Min_cycle;Max_cycle;Signal;HPM_P1;HPM_P2
2021/10/04 00:00:43;;;;;;;0.65;0.20;;;;;;;16.17;71.73;100043.00;10295351;28;20085;-66
2021/10/04 00:05:45;;;;;;;0.63;0.22;;;;;;;15.95;73.20;100008.72;10295772;28;20169;-65
2021/10/04 00:10:47;;;;;;;0.52;0.30;;;;;;;16.04;72.17;100050.69;10299009;28;20046;-64
2021/10/04 00:15:48;;;;;;;0.47;0.20;;;;;;;16.06;73.11;100071.00;10290984;28;20142;-65
2021/10/04 00:20:50;;;;;;;0.50;0.17;;;;;;;16.05;71.38;100092.66;10298140;28;20134;-63
2021/10/04 00:25:51;;;;;;;0.40;0.20;;;;;;;15.89;71.41;100094.25;10293896;28;20050;-65
2021/10/04 00:30:53;;;;;;;1.33;0.43;;;;;;;15.89;71.97;100099.63;10292656;28;20059;-63
2021/10/04 00:35:54;;;;;;;0.65;0.10;;;;;;;15.73;71.25;100096.84;10292814;28;20450;-64
2021/10/04 00:40:56;;;;;;;2.60;0.15;;;;;;;15.69;72.76;100104.38;10291133;28;20430;-65
2021/10/04 00:45:58;;;;;;;0.10;0.10;;;;;;;15.64;73.36;100111.22;10302128;28;20469;-64
2021/10/04 00:51:00;;;;;;;0.40;0.10;;;;;;;15.74;73.87;100128.88;10256466;28;20117;-65
2021/10/04 00:56:02;;;;;;;0.15;0.10;;;;;;;15.50;72.91;100105.44;10255713;28;20059;-64
2021/10/04 01:01:03;;;;;;;0.77;0.10;;;;;;;15.53;73.10;100110.47;10260924;28;20185;-64
2021/10/04 01:06:05;;;;;;;0.10;0.10;;;;;;;15.54;74.17;100090.72;10254669;28;20063;-64
2021/10/04 01:11:07;;;;;;;0.20;0.10;;;;;;;15.55;73.41;100087.03;10254023;28;20051;-64
2021/10/04 01:16:08;;;;;;;1.45;0.10;;;;;;;15.46;74.30;100077.28;10249334;28;20134;-64
2021/10/04 01:21:10;;;;;;;0.47;0.10;;;;;;;15.52;74.53;100071.28;10252525;28;20514;-63
2021/10/04 01:26:12;;;;;;;2.15;0.30;;;;;;;15.50;75.16;100091.19;10254300;28;20055;-63
2021/10/04 01:31:14;;;;;;;0.28;0.22;;;;;;;15.44;75.49;100099.88;10257363;28;20055;-64
2021/10/04 01:36:16;;;;;;;0.57;0.20;;;;;;;15.42;75.97;100080.41;10256623;28;20669;-63
2021/10/04 01:41:18;;;;;;;3.15;0.30;;;;;;;15.41;74.83;100065.34;10250021;28;20061;-63
2021/10/04 01:46:19;;;;;;;0.20;0.20;;;;;;;15.38;76.24;100050.41;10253384;28;20042;-64
2021/10/04 01:51:21;;;;;;;0.50;0.20;;;;;;;15.44;76.10;100068.53;10255475;28;20057;-64
2021/10/04 01:56:22;;;;;;;0.80;0.30;;;;;;;15.48;75.70;100093.22;10251270;28;20062;-64
2021/10/04 02:01:24;;;;;;;0.70;0.20;;;;;;;15.53;76.16;100059.50;10255106;28;20057;-64
2021/10/04 02:06:26;;;;;;;2.90;1.45;;;;;;;15.40;75.74;100056.44;10248054;28;20602;-64
2021/10/04 02:11:27;;;;;;;0.30;0.20;;;;;;;15.36;75.97;100082.75;10248740;28;20051;-64
2021/10/04 02:16:29;;;;;;;0.73;0.40;;;;;;;15.33;76.01;100101.00;10251799;28;20047;-64
2021/10/04 02:21:30;;;;;;;0.28;0.20;;;;;;;15.22;77.16;100101.25;10249056;28;20047;-64
2021/10/04 02:26:32;;;;;;;0.20;0.20;;;;;;;15.12;76.62;100088.78;10251318;28;20126;-63
2021/10/04 02:31:33;;;;;;;0.30;0.20;;;;;;;15.01;78.18;100100.63;10258359;28;20050;-64
2021/10/04 02:36:34;;;;;;;0.80;0.47;;;;;;;15.09;77.56;100097.16;10250346;28;20051;-63
2021/10/04 02:41:36;;;;;;;1.00;0.20;;;;;;;15.05;78.55;100111.84;10254640;28;20420;-63
2021/10/04 02:46:37;;;;;;;0.93;0.30;;;;;;;15.06;78.60;100089.41;10260176;28;20154;-63
2021/10/04 02:51:39;;;;;;;0.93;0.40;;;;;;;15.01;77.87;100094.41;10279686;28;20066;-63
2021/10/04 02:56:40;;;;;;;1.42;0.45;;;;;;;15.05;78.34;100102.97;10280795;28;20475;-64
2021/10/04 03:01:42;;;;;;;2.72;0.40;;;;;;;15.12;77.51;100109.41;10308359;28;20133;-64
2021/10/04 03:06:43;;;;;;;0.60;0.40;;;;;;;15.22;77.66;100103.94;10308101;28;20097;-63
2021/10/04 03:11:45;;;;;;;0.82;0.65;;;;;;;15.12;78.22;100098.69;10311018;28;20050;-64
2021/10/04 03:16:46;;;;;;;0.90;0.60;;;;;;;15.10;78.42;100119.44;10315602;28;20289;-64
2021/10/04 03:21:48;;;;;;;1.23;0.90;;;;;;;14.97;78.56;100125.22;10310978;28;20142;-63
2021/10/04 03:26:49;;;;;;;1.00;0.90;;;;;;;14.88;79.03;100121.63;10305629;28;20125;-63
2021/10/04 03:31:51;;;;;;;1.08;0.80;;;;;;;14.75;79.24;100130.03;10304324;28;20058;-63
2021/10/04 03:36:53;;;;;;;1.67;0.95;;;;;;;14.74;79.69;100155.16;10305098;28;20145;-63
2021/10/04 03:41:55;;;;;;;1.10;1.00;;;;;;;14.61;80.10;100152.00;10305840;28;20496;-62
2021/10/04 03:46:56;;;;;;;2.72;1.30;;;;;;;14.72;80.46;100159.81;10308084;28;20420;-63
2021/10/04 03:51:58;;;;;;;2.33;1.30;;;;;;;14.78;80.51;100169.09;10294136;28;20042;-63
2021/10/04 03:57:00;;;;;;;1.42;1.33;;;;;;;14.78;80.12;100180.63;10299210;28;20054;-63
2021/10/04 04:02:02;;;;;;;1.70;1.60;;;;;;;14.69;81.14;100180.72;10300853;28;20058;-64
2021/10/04 04:07:03;;;;;;;3.50;2.10;;;;;;;14.70;81.84;100193.09;10336151;23;20042;-64
2021/10/04 04:12:05;;;;;;;2.35;1.88;;;;;;;14.64;82.27;100191.91;10343820;28;20123;-65
2021/10/04 04:17:07;;;;;;;2.72;1.90;;;;;;;14.81;82.77;100198.25;10337028;28;20078;-64
2021/10/04 04:22:08;;;;;;;2.60;2.40;;;;;;;14.79;81.91;100187.69;10339915;28;20661;-63
2021/10/04 04:27:10;;;;;;;2.83;2.63;;;;;;;14.66;82.77;100192.56;10335723;28;20070;-64
2021/10/04 04:32:11;;;;;;;2.85;2.65;;;;;;;14.59;83.25;100210.19;10335211;28;20157;-64
2021/10/04 04:37:13;;;;;;;4.50;2.88;;;;;;;14.49;84.92;100208.44;10335565;28;20459;-64
2021/10/04 04:42:14;;;;;;;3.15;2.90;;;;;;;14.58;84.08;100206.69;10333832;28;20049;-64
2021/10/04 04:47:16;;;;;;;7.25;3.83;;;;;;;14.61;85.34;100198.38;10294291;28;20062;-64
2021/10/04 04:52:17;;;;;;;4.32;3.05;;;;;;;14.60;84.23;100210.06;10293839;28;20133;-64
2021/10/04 04:57:19;;;;;;;3.03;2.83;;;;;;;14.50;85.29;100206.59;10293953;28;20515;-64
2021/10/04 05:02:20;;;;;;;6.05;3.80;;;;;;;14.39;85.71;100206.81;10277477;28;20113;-63
2021/10/04 05:07:22;;;;;;;3.75;3.40;;;;;;;14.44;86.53;100221.44;10318767;28;20539;-64
2021/10/04 05:12:24;;;;;;;3.70;3.40;;;;;;;14.48;86.62;100227.34;10319855;28;20062;-63
2021/10/04 05:17:25;;;;;;;4.28;3.70;;;;;;;14.59;86.86;100242.34;10317830;28;20052;-64
2021/10/04 05:22:27;;;;;;;4.65;3.72;;;;;;;14.77;86.62;100247.78;10318294;28;20445;-64
2021/10/04 05:27:28;;;;;;;4.55;4.15;;;;;;;14.79;85.14;100264.56;10320506;28;20137;-63
2021/10/04 05:32:30;;;;;;;4.15;3.78;;;;;;;14.66;85.57;100278.28;10322393;28;20206;-64
2021/10/04 05:37:32;;;;;;;5.65;4.10;;;;;;;14.63;85.56;100283.97;10321943;28;20389;-65
2021/10/04 05:42:33;;;;;;;4.30;3.88;;;;;;;14.48;87.37;100288.94;10314889;28;22554;-68
2021/10/04 05:47:35;;;;;;;4.07;3.67;;;;;;;14.42;86.53;100290.34;10321787;28;20137;-65
2021/10/04 05:52:37;;;;;;;6.32;4.50;;;;;;;14.45;87.01;100310.66;10317191;28;20064;-64
2021/10/04 05:57:38;;;;;;;4.22;3.85;;;;;;;14.28;89.26;100317.63;10319999;28;20111;-65
2021/10/04 06:02:40;;;;;;;4.53;4.18;;;;;;;14.37;89.27;100323.94;10315826;28;20634;-63
2021/10/04 06:07:42;;;;;;;5.20;4.00;;;;;;;14.50;88.39;100332.47;10318602;28;20054;-64
2021/10/04 06:12:43;;;;;;;5.05;4.55;;;;;;;14.40;88.10;100324.50;10321563;28;20057;-56
2021/10/04 06:17:45;;;;;;;5.50;5.00;;;;;;;14.24;88.93;100319.75;10333062;28;20444;-56
2021/10/04 06:22:47;;;;;;;5.65;5.15;;;;;;;14.31;88.76;100320.84;10319293;28;20119;-63
2021/10/04 06:27:51;;;;;;;5.45;4.43;;;;;;;14.41;89.21;100339.56;10316835;28;20156;-63
2021/10/04 06:32:52;;;;;;;5.75;4.93;;;;;;;14.35;88.24;100355.38;10320073;28;20116;-63
2021/10/04 06:37:53;;;;;;;4.55;4.15;;;;;;;14.42;88.34;100376.06;10314129;28;20054;-63
2021/10/04 06:42:55;;;;;;;4.43;4.00;;;;;;;14.33;88.39;100366.22;10316471;28;20205;-64
2021/10/04 06:47:56;;;;;;;5.38;4.03;;;;;;;14.47;89.32;100395.22;10322029;28;20136;-64
2021/10/04 06:52:58;;;;;;;4.30;3.90;;;;;;;14.59;87.63;100400.38;10337158;28;20050;-63
2021/10/04 06:57:59;;;;;;;4.60;4.20;;;;;;;14.52;87.20;100410.00;10343860;28;20050;-64
2021/10/04 07:03:01;;;;;;;3.95;3.65;;;;;;;14.52;87.52;100393.91;10337973;28;20194;-64
2021/10/04 07:08:03;;;;;;;4.45;4.10;;;;;;;14.35;87.60;100409.75;10337705;28;20076;-62
2021/10/04 07:13:05;;;;;;;4.75;4.38;;;;;;;14.50;87.25;100413.69;10338271;28;20069;-64
2021/10/04 07:18:06;;;;;;;4.65;4.28;;;;;;;14.48;86.71;100410.28;10332803;28;20057;-64
2021/10/04 07:23:08;;;;;;;4.30;3.67;;;;;;;14.38;86.69;100401.47;10324334;28;20082;-64
2021/10/04 07:28:09;;;;;;;5.10;4.00;;;;;;;14.33;86.98;100376.94;10329059;28;20081;-63
2021/10/04 07:33:11;;;;;;;4.47;3.75;;;;;;;14.40;86.68;100364.66;10335608;28;20053;-64
2021/10/04 07:38:12;;;;;;;3.53;2.90;;;;;;;14.39;86.94;100376.34;10322482;28;20136;-63
2021/10/04 07:43:14;;;;;;;4.32;3.17;;;;;;;14.47;86.79;100392.53;10329198;28;20143;-63
2021/10/04 07:48:16;;;;;;;3.28;2.75;;;;;;;14.55;87.70;100415.09;10327391;28;20109;-63
2021/10/04 07:53:17;;;;;;;3.20;2.90;;;;;;;14.55;86.05;100436.53;10326527;28;20530;-63
2021/10/04 07:58:19;;;;;;;3.50;3.20;;;;;;;14.45;86.42;100449.91;10326491;28;20046;-64
2021/10/04 08:03:20;;;;;;;4.13;3.30;;;;;;;14.43;86.65;100460.78;10325475;28;20149;-63
2021/10/04 08:08:22;;;;;;;4.45;2.92;;;;;;;14.47;87.38;100472.91;10323360;28;20108;-63
2021/10/04 08:13:23;;;;;;;3.40;2.50;;;;;;;14.49;85.66;100468.22;10325990;28;20128;-63
2021/10/04 08:18:24;;;;;;;3.50;3.20;;;;;;;14.52;86.09;100468.91;10328629;28;20473;-64
2021/10/04 08:23:26;;;;;;;3.45;3.15;;;;;;;14.61;85.74;100457.41;10325649;28;20510;-63
2021/10/04 08:28:27;;;;;;;4.35;3.95;;;;;;;14.74;84.73;100444.53;10323995;28;20069;-62
2021/10/04 08:33:28;;;;;;;4.20;3.50;;;;;;;14.87;84.84;100440.69;10326806;28;20045;-62
2021/10/04 08:38:30;;;;;;;4.55;4.15;;;;;;;14.93;83.56;100442.75;10332625;28;20061;-63
2021/10/04 08:43:31;;;;;;;5.43;5.03;;;;;;;14.91;83.71;100434.03;10324689;28;20286;-64
2021/10/04 08:48:33;;;;;;;4.90;4.47;;;;;;;14.83;83.62;100446.31;10324010;28;20854;-64
2021/10/04 08:53:35;;;;;;;5.20;4.40;;;;;;;14.84;83.83;100421.19;10320366;28;20141;-63
2021/10/04 08:58:36;;;;;;;4.97;3.95;;;;;;;15.03;84.06;100432.84;10323060;28;20131;-63
2021/10/04 09:03:46;;;;;;;5.00;3.88;;;;;;;15.26;83.76;100433.28;10322321;28;20093;-63
2021/10/04 09:08:56;;;;;;;5.05;4.65;;;;;;;15.23;82.48;100446.16;10319365;28;20160;-63
2021/10/04 09:14:08;;;;;;;5.57;5.10;;;;;;;15.19;81.85;100448.28;10321324;28;20060;-64
2021/10/04 09:19:17;;;;;;;6.63;5.20;;;;;;;15.20;81.00;100453.50;10323545;28;20056;-63
2021/10/04 09:24:18;;;;;;;4.50;4.15;;;;;;;14.99;81.62;100444.84;10320400;28;20046;-63
2021/10/04 09:29:20;;;;;;;5.50;4.32;;;;;;;14.90;81.39;100440.38;10320458;28;20050;-64
2021/10/04 09:34:24;;;;;;;5.25;4.85;;;;;;;14.91;80.71;100450.13;10319666;28;20248;-64
2021/10/04 09:39:36;;;;;;;4.68;4.28;;;;;;;14.96;80.79;100462.06;10320830;28;20096;-64
2021/10/04 09:44:45;;;;;;;5.05;4.65;;;;;;;14.98;81.57;100464.59;10320377;28;20049;-63
2021/10/04 09:50:08;;;;;;;4.30;3.90;;;;;;;14.96;80.98;100469.28;10318615;28;20579;-65
2021/10/04 09:55:15;;;;;;;6.20;4.60;;;;;;;14.85;81.69;100459.56;10320317;28;20176;-65
2021/10/04 10:00:17;;;;;;;5.00;4.50;;;;;;;15.01;81.66;100467.84;10321135;28;20588;-64
2021/10/04 10:05:18;;;;;;;4.88;3.92;;;;;;;15.12;81.18;100464.13;10320253;28;20049;-63
2021/10/04 10:10:20;;;;;;;5.85;5.22;;;;;;;15.12;80.44;100461.44;10334756;23;20253;-58
2021/10/04 10:15:25;;;;;;;5.30;4.80;;;;;;;15.28;79.63;100465.31;10318973;28;20509;-58
2021/10/04 10:20:27;;;;;;;5.65;5.10;;;;;;;15.04;79.28;100464.00;10320821;28;21654;-56
2021/10/04 10:25:37;;;;;;;5.53;5.03;;;;;;;14.95;80.13;100462.22;10324224;28;20582;-56
2021/10/04 10:30:51;;;;;;;6.28;5.50;;;;;;;15.02;79.68;100456.09;10320471;28;20067;-57
2021/10/04 10:35:54;;;;;;;5.80;5.18;;;;;;;15.26;78.74;100462.78;10319953;28;20481;-56
2021/10/04 10:41:15;;;;;;;6.30;5.75;;;;;;;15.35;77.20;100467.25;10329223;28;20207;-56
2021/10/04 10:46:50;;;;;;;5.47;4.97;;;;;;;15.49;76.70;100452.50;10328852;28;20061;-56
2021/10/04 10:52:28;;;;;;;5.03;4.63;;;;;;;15.65;75.92;100450.97;10343119;28;20049;-57
2021/10/04 10:57:54;;;;;;;5.65;4.97;;;;;;;15.58;74.78;100449.91;10261627;28;20054;-57
2021/10/04 11:03:09;;;;;;;5.40;4.90;;;;;;;15.52;75.16;100457.56;10291604;28;20042;-57
2021/10/04 11:08:19;;;;;;;6.63;4.82;;;;;;;15.80;74.58;100454.03;10319247;28;20044;-59
2021/10/04 11:13:29;;;;;;;4.60;4.22;;;;;;;15.96;74.62;100461.38;10301402;28;20137;-58
2021/10/04 11:18:35;;;;;;;6.38;5.30;;;;;;;15.98;73.84;100452.16;10309056;28;20131;-58
2021/10/04 11:24:03;;;;;;;5.05;4.65;;;;;;;16.09;72.47;100453.78;10293098;28;20095;-57
2021/10/04 11:29:06;;;;;;;4.85;4.53;;;;;;;16.32;71.37;100453.28;10311636;28;20279;-56
2021/10/04 11:34:09;;;;;;;4.90;4.50;;;;;;;16.50;70.82;100459.47;10310873;28;20061;-56
2021/10/04 11:39:17;;;;;;;4.13;3.83;;;;;;;17.05;68.49;100438.66;10308555;28;20097;-55
2021/10/04 11:44:22;;;;;;;5.03;4.63;;;;;;;19.74;59.12;100429.66;10294613;28;20054;-57
2021/10/04 11:49:28;;;;;;;4.10;3.80;;;;;;;19.38;58.45;100449.09;10293436;28;20062;-56
2021/10/04 11:54:37;;;;;;;3.65;3.35;;;;;;;17.96;62.37;100459.44;10309240;28;20092;-55
2021/10/04 11:59:56;;;;;;;3.88;3.47;;;;;;;18.01;62.55;100457.13;10298750;28;20129;-58
2021/10/04 12:05:21;;;;;;;3.42;3.10;;;;;;;18.01;62.03;100448.19;10308193;28;20494;-56
2021/10/04 12:10:23;;;;;;;4.00;3.50;;;;;;;17.87;63.55;100435.34;10329237;28;20173;-56
2021/10/04 12:15:28;;;;;;;3.67;3.47;;;;;;;17.89;64.42;100446.78;10335946;28;20050;-56
2021/10/04 12:20:29;;;;;;;3.13;2.83;;;;;;;17.79;63.81;100444.25;10330732;28;20049;-55
2021/10/04 12:25:32;;;;;;;1.98;1.88;;;;;;;17.39;64.99;100435.09;10334756;28;20050;-59
2021/10/04 12:31:00;;;;;;;1.93;1.83;;;;;;;17.28;65.72;100434.38;10330598;28;20053;-56
2021/10/04 12:36:05;;;;;;;2.28;2.17;;;;;;;17.17;65.52;100434.66;10333217;28;20478;-58
2021/10/04 12:41:07;;;;;;;2.92;1.83;;;;;;;16.98;66.67;100437.59;10330852;28;20069;-56
2021/10/04 12:46:14;;;;;;;2.40;2.28;;;;;;;16.76;67.11;100437.13;10332471;28;20103;-57
2021/10/04 12:51:19;;;;;;;2.22;2.05;;;;;;;16.76;67.48;100431.75;10331729;28;20576;-56
2021/10/04 12:56:29;;;;;;;2.10;1.90;;;;;;;16.91;66.50;100419.44;10333526;28;20065;-56
2021/10/04 13:01:33;;;;;;;2.13;2.03;;;;;;;16.77;65.92;100420.84;10331562;28;20077;-57
2021/10/04 13:06:37;;;;;;;2.42;2.33;;;;;;;16.76;65.71;100431.75;10330434;28;20108;-57
2021/10/04 13:11:49;;;;;;;3.50;1.98;;;;;;;17.65;63.10;100426.91;10328105;28;20077;-56
2021/10/04 13:16:52;;;;;;;3.78;2.35;;;;;;;18.20;61.26;100433.53;10331143;28;20161;-56
2021/10/04 13:21:54;;;;;;;;;;;;;;;17.83;62.49;100426.75;10331111;28;22129;-56
2021/10/04 13:26:56;;;;;;;1.85;1.75;;;;;;;17.49;63.91;100416.97;10328961;28;20024;-56
2021/10/04 13:31:57;;;;;;;2.25;2.05;;;;;;;17.61;64.11;100415.63;10330004;28;20159;-57
2021/10/04 13:36:58;;;;;;;1.88;1.77;;;;;;;17.66;63.90;100410.56;10333105;28;20179;-56
2021/10/04 13:42:01;;;;;;;1.92;1.75;;;;;;;17.49;63.66;100393.56;10332727;28;20071;-56
2021/10/04 13:47:03;;;;;;;2.20;1.50;;;;;;;17.41;65.25;100401.59;10329931;28;20041;-57
2021/10/04 13:52:05;;;;;;;1.25;1.15;;;;;;;17.29;64.82;100397.53;10329662;28;20073;-57
2021/10/04 13:57:06;;;;;;;1.40;1.30;;;;;;;17.05;64.61;100384.88;10327548;28;20057;-58
2021/10/04 14:02:10;;;;;;;2.20;1.40;;;;;;;16.93;65.66;100389.69;10322091;28;20056;-57
2021/10/04 14:07:12;;;;;;;1.67;0.80;;;;;;;16.83;65.35;100379.03;10322808;28;20046;-58
2021/10/04 14:12:13;;;;;;;1.83;1.10;;;;;;;17.06;65.08;100383.88;10318085;28;20180;-61
2021/10/04 14:17:14;;;;;;;1.65;0.70;;;;;;;16.81;65.73;100370.28;10323281;28;20492;-59
2021/10/04 14:22:16;;;;;;;2.05;0.88;;;;;;;16.67;65.07;100381.66;10321844;28;20076;-62
2021/10/04 14:27:18;;;;;;;0.75;0.75;;;;;;;16.67;66.53;100370.91;10322238;28;20129;-57
2021/10/04 14:32:19;;;;;;;0.85;0.82;;;;;;;16.81;66.16;100375.66;10320222;28;20049;-58
2021/10/04 14:37:21;;;;;;;1.13;0.95;;;;;;;16.98;65.50;100383.81;10321603;28;20534;-56
2021/10/04 14:42:22;;;;;;;1.33;1.02;;;;;;;17.18;64.38;100363.72;10318412;28;20729;-58
2021/10/04 14:47:24;;;;;;;1.77;0.80;;;;;;;17.41;63.56;100373.88;10321448;28;20294;-57
2021/10/04 14:52:26;;;;;;;1.00;0.80;;;;;;;17.39;63.28;100375.91;10328766;28;20344;-58
2021/10/04 14:57:28;;;;;;;1.48;0.65;;;;;;;16.99;64.29;100358.63;10330490;28;20140;-57
2021/10/04 15:02:29;;;;;;;1.48;0.90;;;;;;;16.90;65.23;100372.06;10330903;28;20046;-58
2021/10/04 15:07:31;;;;;;;1.88;0.80;;;;;;;16.86;65.47;100370.66;10330304;28;20057;-57
2021/10/04 15:12:32;;;;;;;1.10;1.00;;;;;;;16.96;65.67;100365.16;10327964;28;20070;-56
2021/10/04 15:17:35;;;;;;;1.13;0.70;;;;;;;16.82;65.92;100374.66;10329867;28;20096;-59
2021/10/04 15:22:36;;;;;;;1.13;0.95;;;;;;;16.85;66.64;100352.84;10327507;28;20057;-57
2021/10/04 15:27:37;;;;;;;1.38;0.90;;;;;;;16.88;66.48;100357.91;10327960;28;20121;-58
2021/10/04 15:32:39;;;;;;;1.10;0.88;;;;;;;16.82;66.62;100353.16;10318645;28;20077;-58
2021/10/04 15:37:40;;;;;;;2.03;1.20;;;;;;;16.55;67.28;100335.41;10329373;28;20054;-64
2021/10/04 15:42:42;;;;;;;2.28;1.10;;;;;;;16.56;68.23;100351.38;10332062;28;20069;-58
2021/10/04 15:47:44;;;;;;;2.38;1.20;;;;;;;16.53;67.85;100349.00;10334597;28;20089;-56
2021/10/04 15:52:45;;;;;;;2.35;1.40;;;;;;;16.53;67.45;100353.50;10333746;28;20093;-56
2021/10/04 15:57:47;;;;;;;1.42;1.33;;;;;;;16.36;67.99;100337.34;10333430;28;20361;-56
2021/10/04 16:02:48;;;;;;;1.40;0.93;;;;;;;16.41;68.43;100350.28;10326229;28;20054;-56
2021/10/04 16:07:53;;;;;;;1.20;1.05;;;;;;;16.38;68.66;100334.50;10318294;28;20715;-57
2021/10/04 16:12:55;;;;;;;2.47;1.08;;;;;;;16.50;68.60;100343.09;10320616;28;20100;-56
2021/10/04 16:17:56;;;;;;;2.50;1.05;;;;;;;16.41;68.98;100334.16;10324695;28;20151;-56
2021/10/04 16:22:58;;;;;;;2.00;1.10;;;;;;;16.48;68.71;100339.72;10327276;28;20156;-56
2021/10/04 16:27:59;;;;;;;0.85;0.85;;;;;;;16.38;67.68;100339.84;10324438;28;20065;-57
2021/10/04 16:33:02;;;;;;;0.98;0.88;;;;;;;16.30;69.30;100337.09;10323644;28;20097;-60
2021/10/04 16:38:05;;;;;;;2.03;0.93;;;;;;;16.19;68.74;100325.63;10320944;28;20058;-59
2021/10/04 16:43:07;;;;;;;0.90;0.87;;;;;;;16.14;69.40;100327.09;10321357;28;20139;-59
2021/10/04 16:48:08;;;;;;;1.55;0.95;;;;;;;16.12;69.27;100334.47;10326209;28;20297;-56
2021/10/04 16:53:09;;;;;;;1.23;0.82;;;;;;;16.03;69.08;100341.63;10329834;28;20096;-57
2021/10/04 16:58:11;;;;;;;1.20;0.90;;;;;;;15.82;69.34;100315.13;10338999;23;20901;-57
2021/10/04 17:03:12;;;;;;;2.28;1.55;;;;;;;15.82;69.63;100345.53;10274359;28;20412;-59
2021/10/04 17:08:14;;;;;;;1.58;1.30;;;;;;;15.78;70.33;100332.53;10299711;28;20046;-59
2021/10/04 17:13:17;;;;;;;1.52;1.08;;;;;;;15.75;70.74;100328.31;10293619;28;20144;-59
2021/10/04 17:18:18;;;;;;;3.53;1.75;;;;;;;15.73;71.24;100330.28;10291554;28;20478;-59
2021/10/04 17:23:20;;;;;;;1.50;1.30;;;;;;;15.74;71.66;100334.66;10296008;28;20503;-60
2021/10/04 17:28:22;;;;;;;1.67;1.40;;;;;;;15.59;70.84;100317.44;10296036;28;20126;-59
2021/10/04 17:33:25;;;;;;;4.47;4.10;;;;;;;15.58;71.33;100337.22;10295901;28;20673;-59
2021/10/04 17:38:27;;;;;;;4.63;3.33;;;;;;;15.43;71.64;100318.97;10293725;28;20126;-60
2021/10/04 17:43:28;;;;;;;1.90;1.08;;;;;;;15.34;71.56;100326.13;10293628;28;20185;-58
2021/10/04 17:48:30;;;;;;;2.92;1.35;;;;;;;15.22;72.38;100305.84;10289307;28;20136;-58
2021/10/04 17:53:31;;;;;;;1.65;1.55;;;;;;;15.13;72.65;100302.28;10272870;28;20049;-58
2021/10/04 17:58:36;;;;;;;1.70;1.27;;;;;;;15.11;73.08;100322.19;10283342;28;20447;-59
2021/10/04 18:03:37;;;;;;;;;;;;;;;15.08;73.28;100307.22;10291682;28;20081;-59
2021/10/04 18:08:38;;;;;;;2.30;1.35;;;;;;;15.10;73.20;100312.44;10290724;28;20031;-61
2021/10/04 18:13:40;;;;;;;1.88;1.77;;;;;;;15.00;73.07;100307.16;10294930;28;20057;-61
2021/10/04 18:18:41;;;;;;;4.22;1.50;;;;;;;14.93;72.95;100300.72;10286789;28;20476;-62
2021/10/04 18:23:44;;;;;;;3.35;1.40;;;;;;;15.00;73.42;100302.63;10290027;28;20147;-61
2021/10/04 18:28:46;;;;;;;1.90;1.50;;;;;;;14.98;73.96;100317.16;10293516;28;20129;-63
2021/10/04 18:33:48;;;;;;;2.40;1.55;;;;;;;14.98;74.22;100322.53;10293612;28;20058;-62
2021/10/04 18:38:50;;;;;;;2.42;1.60;;;;;;;14.99;74.73;100322.38;10297690;28;20058;-62
2021/10/04 18:43:52;;;;;;;2.70;1.90;;;;;;;15.04;74.49;100324.59;10294257;28;20124;-62
2021/10/04 18:48:53;;;;;;;3.05;1.65;;;;;;;15.05;74.50;100337.03;10301087;28;20057;-61
2021/10/04 18:53:55;;;;;;;2.47;1.90;;;;;;;14.97;74.35;100323.53;10307301;28;20130;-62
2021/10/04 18:58:56;;;;;;;2.28;2.08;;;;;;;14.95;74.70;100315.66;10305603;28;20243;-61
2021/10/04 19:03:58;;;;;;;3.05;2.00;;;;;;;14.91;74.84;100310.75;10301674;28;20216;-63
2021/10/04 19:08:59;;;;;;;3.55;1.65;;;;;;;14.93;74.89;100308.75;10303430;28;20073;-62
2021/10/04 19:14:01;;;;;;;3.95;2.00;;;;;;;14.95;74.34;100288.84;10306052;28;20086;-62
2021/10/04 19:19:02;;;;;;;3.55;3.05;;;;;;;14.93;75.52;100290.00;10303411;28;20189;-62
2021/10/04 19:24:04;;;;;;;2.40;1.90;;;;;;;14.94;74.60;100291.69;10307449;28;20171;-62
2021/10/04 19:29:06;;;;;;;2.40;1.38;;;;;;;14.94;75.17;100283.66;10309577;28;20078;-61
2021/10/04 19:34:07;;;;;;;2.42;2.22;;;;;;;14.97;75.23;100286.84;10311034;28;20097;-61
2021/10/04 19:39:09;;;;;;;1.92;1.83;;;;;;;14.99;74.79;100284.84;10311363;28;20527;-62
2021/10/04 19:44:10;;;;;;;2.40;2.20;;;;;;;14.93;74.65;100279.28;10295450;28;20047;-62
2021/10/04 19:49:11;;;;;;;2.90;2.70;;;;;;;14.91;74.81;100300.03;10299667;28;20058;-65
2021/10/04 19:54:16;;;;;;;2.63;2.42;;;;;;;14.93;75.26;100290.00;10278672;28;20164;-64
2021/10/04 19:59:17;;;;;;;3.10;2.80;;;;;;;14.90;75.29;100284.94;10287900;28;20972;-62
2021/10/04 20:04:19;;;;;;;4.60;4.20;;;;;;;14.82;75.57;100289.22;10292173;28;20125;-61
2021/10/04 20:09:20;;;;;;;4.90;3.72;;;;;;;14.85;76.14;100283.53;10297533;28;20060;-61
2021/10/04 20:14:22;;;;;;;5.07;3.92;;;;;;;14.83;76.14;100282.00;10301187;28;20061;-62
2021/10/04 20:19:23;;;;;;;4.25;3.53;;;;;;;14.90;76.10;100274.22;10303448;28;20137;-62
2021/10/04 20:24:33;;;;;;;4.93;3.80;;;;;;;14.85;76.01;100278.19;10290729;28;20082;-61
2021/10/04 20:29:34;;;;;;;4.85;3.67;;;;;;;14.75;76.21;100269.34;10251146;28;20157;-62
2021/10/04 20:34:38;;;;;;;5.30;4.10;;;;;;;14.77;76.41;100266.53;10289397;28;20140;-62
2021/10/04 20:39:39;;;;;;;4.60;3.80;;;;;;;14.81;76.36;100246.47;10290677;28;20138;-62
2021/10/04 20:44:41;;;;;;;4.13;3.75;;;;;;;14.75;76.40;100236.38;10287758;28;20385;-61
2021/10/04 20:49:42;;;;;;;5.18;4.15;;;;;;;14.83;76.35;100241.81;10280609;28;20129;-62
2021/10/04 20:54:45;;;;;;;6.18;4.32;;;;;;;14.82;76.25;100229.41;10284574;28;20057;-63
2021/10/04 20:59:46;;;;;;;4.53;4.13;;;;;;;14.86;75.88;100225.41;10286542;28;20125;-61
2021/10/04 21:04:50;;;;;;;4.13;3.80;;;;;;;14.82;76.64;100229.41;10283243;28;20459;-63
2021/10/04 21:09:51;;;;;;;4.17;3.83;;;;;;;14.77;76.67;100216.47;10285604;28;20148;-62
2021/10/04 21:14:53;;;;;;;5.55;3.80;;;;;;;14.78;76.74;100212.78;10287258;28;20129;-62
2021/10/04 21:19:54;;;;;;;3.65;3.35;;;;;;;14.84;77.03;100212.16;10284429;28;20112;-61
2021/10/04 21:24:57;;;;;;;4.38;3.97;;;;;;;14.86;77.15;100203.97;10279935;28;20058;-61
2021/10/04 21:29:58;;;;;;;4.60;4.07;;;;;;;14.90;76.85;100204.53;10285223;28;20124;-61
2021/10/04 21:35:00;;;;;;;4.38;3.97;;;;;;;14.91;76.62;100222.31;10288621;28;20051;-61
2021/10/04 21:40:03;;;;;;;4.10;3.75;;;;;;;14.91;77.02;100233.03;10288799;28;20057;-61
2021/10/04 21:45:06;;;;;;;5.00;4.50;;;;;;;14.79;76.98;100230.56;10281773;28;20125;-61
2021/10/04 21:50:08;;;;;;;4.40;4.00;;;;;;;14.74;77.29;100219.47;10294312;28;20125;-61
2021/10/04 21:55:11;;;;;;;4.75;4.22;;;;;;;14.68;77.62;100217.34;10298678;28;21485;-61
2021/10/04 22:00:35;;;;;;;4.25;3.95;;;;;;;14.71;77.99;100210.88;10292102;28;20093;-61
2021/10/04 22:11:06;;;;;;;4.78;4.30;;;;;;;14.60;78.38;100206.53;10290957;28;20074;-61
2021/10/04 22:16:08;;;;;;;6.95;4.75;;;;;;;14.60;78.50;100201.19;10284872;28;20042;-61
2021/10/04 22:21:11;;;;;;;8.43;4.93;;;;;;;14.67;78.44;100194.28;10292938;28;20631;-61
2021/10/04 22:26:15;;;;;;;5.38;4.80;;;;;;;14.69;78.36;100186.91;10293868;28;20077;-61
2021/10/04 22:31:16;;;;;;;5.93;5.03;;;;;;;14.66;78.44;100181.84;10297018;28;20069;-61
2021/10/04 22:36:18;;;;;;;5.70;5.18;;;;;;;14.63;78.52;100171.44;10296418;28;20042;-61
2021/10/04 22:41:19;;;;;;;6.25;5.45;;;;;;;14.62;78.45;100172.44;10290063;28;20266;-61
2021/10/04 22:46:21;;;;;;;5.40;4.88;;;;;;;14.56;78.73;100175.69;10291841;28;20082;-61
2021/10/04 22:51:22;;;;;;;5.18;4.78;;;;;;;14.47;78.94;100154.19;10289518;28;20054;-61
2021/10/04 22:56:24;;;;;;;7.93;5.15;;;;;;;14.46;79.32;100171.25;10294134;28;20117;-61
2021/10/04 23:01:25;;;;;;;5.30;4.80;;;;;;;14.43;79.08;100166.19;10294555;28;20089;-61
2021/10/04 23:06:27;;;;;;;6.60;5.13;;;;;;;14.44;79.35;100143.78;10294892;28;20042;-61
2021/10/04 23:11:29;;;;;;;5.03;4.53;;;;;;;14.45;79.13;100137.41;10297048;28;20058;-61
2021/10/04 23:16:30;;;;;;;6.40;4.88;;;;;;;14.45;79.00;100124.03;10302124;28;20125;-61